sensor_id;sensor_type;location;lat;lon;timestamp;P1;durP1;ratioP1;P2;durP2;ratioP2
20036;SDS011;10179;42.640;23.312;2023-07-31T00:01:04;3.45;;;3.00;;
20036;SDS011;10179;42.640;23.312;2023-07-31T00:03:30;3.30;;;2.75;;
20036;SDS011;10179;42.640;23.312;2023-07-31T00:05:55;3.85;;;2.90;;
20036;SDS011;10179;42.640;23.312;2023-07-31T00:08:20;2.90;;;2.60;;
20036;SDS011;10179;42.640;23.312;2023-07-31T00:10:46;4.15;;;2.53;;
20036;SDS011;10179;42.640;23.312;2023-07-31T00:13:11;6.20;;;2.83;;
20036;SDS011;10179;42.640;23.312;2023-07-31T00:15:36;3.30;;;2.72;;
20036;SDS011;10179;42.640;23.312;2023-07-31T00:18:02;4.30;;;3.08;;
20036;SDS011;10179;42.640;23.312;2023-07-31T00:20:27;3.78;;;2.42;;
20036;SDS011;10179;42.640;23.312;2023-07-31T00:22:53;3.92;;;2.70;;
20036;SDS011;10179;42.640;23.312;2023-07-31T00:25:18;3.78;;;3.05;;
20036;SDS011;10179;42.640;23.312;2023-07-31T00:27:43;4.95;;;2.80;;
20036;SDS011;10179;42.640;23.312;2023-07-31T00:30:11;4.13;;;3.03;;
20036;SDS011;10179;42.640;23.312;2023-07-31T00:32:37;8.38;;;3.17;;
20036;SDS011;10179;42.640;23.312;2023-07-31T00:35:02;4.00;;;3.25;;
20036;SDS011;10179;42.640;23.312;2023-07-31T00:37:28;4.20;;;3.13;;
20036;SDS011;10179;42.640;23.312;2023-07-31T00:39:53;4.90;;;3.60;;
20036;SDS011;10179;42.640;23.312;2023-07-31T00:42:20;3.90;;;3.13;;
20036;SDS011;10179;42.640;23.312;2023-07-31T00:44:45;4.50;;;3.42;;
20036;SDS011;10179;42.640;23.312;2023-07-31T00:47:10;5.38;;;3.45;;
20036;SDS011;10179;42.640;23.312;2023-07-31T00:49:36;4.75;;;3.70;;
20036;SDS011;10179;42.640;23.312;2023-07-31T00:52:02;5.40;;;4.00;;
20036;SDS011;10179;42.640;23.312;2023-07-31T00:54:28;4.95;;;4.13;;
20036;SDS011;10179;42.640;23.312;2023-07-31T00:56:53;4.72;;;3.67;;
20036;SDS011;10179;42.640;23.312;2023-07-31T00:59:19;6.45;;;4.72;;
20036;SDS011;10179;42.640;23.312;2023-07-31T01:01:45;6.28;;;4.88;;
20036;SDS011;10179;42.640;23.312;2023-07-31T01:04:11;8.10;;;5.30;;
20036;SDS011;10179;42.640;23.312;2023-07-31T01:06:48;8.25;;;5.97;;
20036;SDS011;10179;42.640;23.312;2023-07-31T01:09:42;8.73;;;6.53;;
20036;SDS011;10179;42.640;23.312;2023-07-31T01:12:15;8.77;;;6.88;;
20036;SDS011;10179;42.640;23.312;2023-07-31T01:17:25;11.77;;;9.23;;
20036;SDS011;10179;42.640;23.312;2023-07-31T01:19:51;14.52;;;10.52;;
20036;SDS011;10179;42.640;23.312;2023-07-31T01:25:56;15.60;;;11.40;;
20036;SDS011;10179;42.640;23.312;2023-07-31T01:31:03;15.38;;;11.95;;
20036;SDS011;10179;42.640;23.312;2023-07-31T01:33:32;17.50;;;12.85;;
20036;SDS011;10179;42.640;23.312;2023-07-31T01:35:59;18.98;;;13.55;;
20036;SDS011;10179;42.640;23.312;2023-07-31T01:38:26;18.30;;;13.98;;
20036;SDS011;10179;42.640;23.312;2023-07-31T01:40:51;19.95;;;14.23;;
20036;SDS011;10179;42.640;23.312;2023-07-31T01:43:18;21.52;;;14.68;;
20036;SDS011;10179;42.640;23.312;2023-07-31T01:45:43;20.52;;;15.43;;
20036;SDS011;10179;42.640;23.312;2023-07-31T01:48:09;19.13;;;14.40;;
20036;SDS011;10179;42.640;23.312;2023-07-31T01:50:34;23.02;;;16.10;;
20036;SDS011;10179;42.640;23.312;2023-07-31T01:53:00;22.23;;;15.63;;
20036;SDS011;10179;42.640;23.312;2023-07-31T01:55:25;22.10;;;16.65;;
20036;SDS011;10179;42.640;23.312;2023-07-31T01:57:51;20.85;;;16.40;;
20036;SDS011;10179;42.640;23.312;2023-07-31T02:00:17;23.65;;;16.20;;
20036;SDS011;10179;42.640;23.312;2023-07-31T02:02:42;21.67;;;16.40;;
20036;SDS011;10179;42.640;23.312;2023-07-31T02:05:08;21.98;;;16.63;;
20036;SDS011;10179;42.640;23.312;2023-07-31T02:07:33;21.58;;;16.48;;
20036;SDS011;10179;42.640;23.312;2023-07-31T02:09:58;22.42;;;16.98;;
20036;SDS011;10179;42.640;23.312;2023-07-31T02:12:24;21.77;;;16.85;;
20036;SDS011;10179;42.640;23.312;2023-07-31T02:14:49;23.95;;;17.45;;
20036;SDS011;10179;42.640;23.312;2023-07-31T02:17:14;25.83;;;17.10;;
20036;SDS011;10179;42.640;23.312;2023-07-31T02:19:40;23.77;;;16.55;;
20036;SDS011;10179;42.640;23.312;2023-07-31T02:22:05;22.58;;;17.40;;
20036;SDS011;10179;42.640;23.312;2023-07-31T02:24:31;23.98;;;17.02;;
20036;SDS011;10179;42.640;23.312;2023-07-31T02:26:57;23.05;;;16.48;;
20036;SDS011;10179;42.640;23.312;2023-07-31T02:29:22;23.52;;;17.05;;
20036;SDS011;10179;42.640;23.312;2023-07-31T02:31:47;23.15;;;16.60;;
20036;SDS011;10179;42.640;23.312;2023-07-31T02:34:13;24.00;;;15.90;;
20036;SDS011;10179;42.640;23.312;2023-07-31T02:36:39;21.38;;;15.68;;
20036;SDS011;10179;42.640;23.312;2023-07-31T02:39:04;21.85;;;16.27;;
20036;SDS011;10179;42.640;23.312;2023-07-31T02:41:30;22.55;;;15.98;;
20036;SDS011;10179;42.640;23.312;2023-07-31T02:43:55;23.30;;;16.85;;
20036;SDS011;10179;42.640;23.312;2023-07-31T02:46:21;21.48;;;16.50;;
20036;SDS011;10179;42.640;23.312;2023-07-31T02:48:49;20.52;;;15.27;;
20036;SDS011;10179;42.640;23.312;2023-07-31T02:51:15;22.33;;;16.33;;
20036;SDS011;10179;42.640;23.312;2023-07-31T02:53:40;22.50;;;16.65;;
20036;SDS011;10179;42.640;23.312;2023-07-31T02:56:05;21.13;;;16.23;;
20036;SDS011;10179;42.640;23.312;2023-07-31T02:58:31;22.27;;;16.48;;
20036;SDS011;10179;42.640;23.312;2023-07-31T03:00:57;22.08;;;16.27;;
20036;SDS011;10179;42.640;23.312;2023-07-31T03:03:23;24.65;;;16.42;;
20036;SDS011;10179;42.640;23.312;2023-07-31T03:05:49;23.83;;;16.42;;
20036;SDS011;10179;42.640;23.312;2023-07-31T03:08:14;23.80;;;16.92;;
20036;SDS011;10179;42.640;23.312;2023-07-31T03:10:40;23.17;;;15.75;;
20036;SDS011;10179;42.640;23.312;2023-07-31T03:13:06;21.17;;;16.02;;
20036;SDS011;10179;42.640;23.312;2023-07-31T03:15:32;20.70;;;15.07;;
20036;SDS011;10179;42.640;23.312;2023-07-31T03:17:57;22.10;;;15.68;;
20036;SDS011;10179;42.640;23.312;2023-07-31T03:20:23;23.17;;;15.25;;
20036;SDS011;10179;42.640;23.312;2023-07-31T03:22:48;22.90;;;15.40;;
20036;SDS011;10179;42.640;23.312;2023-07-31T03:25:13;20.80;;;15.57;;
20036;SDS011;10179;42.640;23.312;2023-07-31T03:27:39;24.50;;;15.68;;
20036;SDS011;10179;42.640;23.312;2023-07-31T03:30:05;22.60;;;15.73;;
20036;SDS011;10179;42.640;23.312;2023-07-31T03:32:31;23.38;;;16.15;;
20036;SDS011;10179;42.640;23.312;2023-07-31T03:34:57;23.33;;;15.90;;
20036;SDS011;10179;42.640;23.312;2023-07-31T03:37:22;23.08;;;16.08;;
20036;SDS011;10179;42.640;23.312;2023-07-31T03:39:48;24.25;;;16.33;;
20036;SDS011;10179;42.640;23.312;2023-07-31T03:42:13;23.70;;;16.63;;
20036;SDS011;10179;42.640;23.312;2023-07-31T03:44:39;24.73;;;16.65;;
20036;SDS011;10179;42.640;23.312;2023-07-31T03:47:05;23.83;;;16.80;;
20036;SDS011;10179;42.640;23.312;2023-07-31T03:49:30;25.75;;;17.10;;
20036;SDS011;10179;42.640;23.312;2023-07-31T03:51:56;27.70;;;16.98;;
20036;SDS011;10179;42.640;23.312;2023-07-31T03:54:21;25.77;;;17.10;;
20036;SDS011;10179;42.640;23.312;2023-07-31T03:56:47;23.75;;;16.60;;
20036;SDS011;10179;42.640;23.312;2023-07-31T03:59:12;25.88;;;16.77;;
20036;SDS011;10179;42.640;23.312;2023-07-31T04:01:37;29.00;;;17.13;;
20036;SDS011;10179;42.640;23.312;2023-07-31T04:04:03;27.65;;;16.98;;
20036;SDS011;10179;42.640;23.312;2023-07-31T04:06:28;27.95;;;17.48;;
20036;SDS011;10179;42.640;23.312;2023-07-31T04:08:54;24.52;;;16.20;;
20036;SDS011;10179;42.640;23.312;2023-07-31T04:11:19;25.67;;;16.98;;
20036;SDS011;10179;42.640;23.312;2023-07-31T04:13:44;24.80;;;16.20;;
20036;SDS011;10179;42.640;23.312;2023-07-31T04:16:10;28.15;;;17.13;;
20036;SDS011;10179;42.640;23.312;2023-07-31T04:18:35;24.85;;;17.08;;
20036;SDS011;10179;42.640;23.312;2023-07-31T04:21:00;25.42;;;16.52;;
20036;SDS011;10179;42.640;23.312;2023-07-31T04:23:27;25.90;;;16.02;;
20036;SDS011;10179;42.640;23.312;2023-07-31T04:25:52;23.52;;;16.13;;
20036;SDS011;10179;42.640;23.312;2023-07-31T04:28:18;25.85;;;16.83;;
20036;SDS011;10179;42.640;23.312;2023-07-31T04:30:43;22.13;;;15.52;;
20036;SDS011;10179;42.640;23.312;2023-07-31T04:33:09;24.48;;;16.00;;
20036;SDS011;10179;42.640;23.312;2023-07-31T04:35:34;24.85;;;15.32;;
20036;SDS011;10179;42.640;23.312;2023-07-31T04:37:59;25.08;;;14.52;;
20036;SDS011;10179;42.640;23.312;2023-07-31T04:40:25;20.95;;;13.90;;
20036;SDS011;10179;42.640;23.312;2023-07-31T04:42:50;20.10;;;13.18;;
20036;SDS011;10179;42.640;23.312;2023-07-31T04:45:16;20.25;;;13.75;;
20036;SDS011;10179;42.640;23.312;2023-07-31T04:47:41;18.77;;;12.50;;
20036;SDS011;10179;42.640;23.312;2023-07-31T04:50:07;20.55;;;14.10;;
20036;SDS011;10179;42.640;23.312;2023-07-31T04:52:32;20.13;;;13.70;;
20036;SDS011;10179;42.640;23.312;2023-07-31T04:54:58;17.42;;;11.80;;
20036;SDS011;10179;42.640;23.312;2023-07-31T04:57:23;17.40;;;11.95;;
20036;SDS011;10179;42.640;23.312;2023-07-31T04:59:48;20.27;;;13.10;;
20036;SDS011;10179;42.640;23.312;2023-07-31T05:02:14;17.48;;;12.88;;
20036;SDS011;10179;42.640;23.312;2023-07-31T05:04:39;20.63;;;12.48;;
20036;SDS011;10179;42.640;23.312;2023-07-31T05:07:04;19.35;;;12.85;;
20036;SDS011;10179;42.640;23.312;2023-07-31T05:09:30;15.63;;;11.80;;
20036;SDS011;10179;42.640;23.312;2023-07-31T05:11:56;18.00;;;12.13;;
20036;SDS011;10179;42.640;23.312;2023-07-31T05:14:21;16.83;;;12.45;;
20036;SDS011;10179;42.640;23.312;2023-07-31T05:16:46;15.68;;;12.13;;
20036;SDS011;10179;42.640;23.312;2023-07-31T05:19:12;19.38;;;12.65;;
20036;SDS011;10179;42.640;23.312;2023-07-31T05:21:37;14.32;;;10.85;;
20036;SDS011;10179;42.640;23.312;2023-07-31T05:24:03;14.65;;;10.43;;
20036;SDS011;10179;42.640;23.312;2023-07-31T05:26:28;17.23;;;9.80;;
20036;SDS011;10179;42.640;23.312;2023-07-31T05:28:54;21.45;;;10.20;;
20036;SDS011;10179;42.640;23.312;2023-07-31T05:31:19;12.73;;;9.65;;
20036;SDS011;10179;42.640;23.312;2023-07-31T05:33:45;12.70;;;9.48;;
20036;SDS011;10179;42.640;23.312;2023-07-31T05:36:11;11.13;;;8.73;;
20036;SDS011;10179;42.640;23.312;2023-07-31T05:38:36;13.00;;;9.60;;
20036;SDS011;10179;42.640;23.312;2023-07-31T05:41:02;10.13;;;7.93;;
20036;SDS011;10179;42.640;23.312;2023-07-31T05:43:27;14.15;;;8.57;;
20036;SDS011;10179;42.640;23.312;2023-07-31T05:45:53;10.07;;;7.65;;
20036;SDS011;10179;42.640;23.312;2023-07-31T05:48:18;11.77;;;7.70;;
20036;SDS011;10179;42.640;23.312;2023-07-31T05:50:43;9.95;;;7.93;;
20036;SDS011;10179;42.640;23.312;2023-07-31T05:53:09;13.27;;;7.97;;
20036;SDS011;10179;42.640;23.312;2023-07-31T05:55:35;11.50;;;7.15;;
20036;SDS011;10179;42.640;23.312;2023-07-31T05:58:01;10.15;;;7.35;;
20036;SDS011;10179;42.640;23.312;2023-07-31T06:00:26;11.38;;;6.90;;
20036;SDS011;10179;42.640;23.312;2023-07-31T06:02:52;8.68;;;6.13;;
20036;SDS011;10179;42.640;23.312;2023-07-31T06:05:18;8.00;;;5.80;;
20036;SDS011;10179;42.640;23.312;2023-07-31T06:07:43;7.93;;;5.50;;
20036;SDS011;10179;42.640;23.312;2023-07-31T06:10:09;8.85;;;6.43;;
20036;SDS011;10179;42.640;23.312;2023-07-31T06:12:34;7.45;;;6.00;;
20036;SDS011;10179;42.640;23.312;2023-07-31T06:15:01;7.75;;;5.90;;
20036;SDS011;10179;42.640;23.312;2023-07-31T06:17:28;8.77;;;5.30;;
20036;SDS011;10179;42.640;23.312;2023-07-31T06:19:54;8.27;;;4.60;;
20036;SDS011;10179;42.640;23.312;2023-07-31T06:22:19;7.40;;;4.32;;
20036;SDS011;10179;42.640;23.312;2023-07-31T06:24:45;3.83;;;3.40;;
20036;SDS011;10179;42.640;23.312;2023-07-31T06:27:11;4.88;;;3.85;;
20036;SDS011;10179;42.640;23.312;2023-07-31T06:29:36;7.20;;;4.35;;
20036;SDS011;10179;42.640;23.312;2023-07-31T06:32:02;4.45;;;3.72;;
20036;SDS011;10179;42.640;23.312;2023-07-31T06:34:28;5.22;;;3.70;;
20036;SDS011;10179;42.640;23.312;2023-07-31T06:36:53;5.63;;;3.22;;
20036;SDS011;10179;42.640;23.312;2023-07-31T06:39:19;4.55;;;3.38;;
20036;SDS011;10179;42.640;23.312;2023-07-31T06:41:44;6.03;;;2.83;;
20036;SDS011;10179;42.640;23.312;2023-07-31T06:44:10;6.50;;;3.05;;
20036;SDS011;10179;42.640;23.312;2023-07-31T06:46:36;5.32;;;3.17;;
20036;SDS011;10179;42.640;23.312;2023-07-31T06:49:01;5.90;;;3.67;;
20036;SDS011;10179;42.640;23.312;2023-07-31T06:51:27;4.25;;;3.40;;
20036;SDS011;10179;42.640;23.312;2023-07-31T06:53:52;5.25;;;3.40;;
20036;SDS011;10179;42.640;23.312;2023-07-31T06:56:17;4.35;;;2.83;;
20036;SDS011;10179;42.640;23.312;2023-07-31T06:58:43;3.90;;;2.95;;
20036;SDS011;10179;42.640;23.312;2023-07-31T07:01:08;4.38;;;3.20;;
20036;SDS011;10179;42.640;23.312;2023-07-31T07:03:34;6.43;;;3.10;;
20036;SDS011;10179;42.640;23.312;2023-07-31T07:05:59;4.78;;;2.50;;
20036;SDS011;10179;42.640;23.312;2023-07-31T07:08:25;5.43;;;2.67;;
20036;SDS011;10179;42.640;23.312;2023-07-31T07:10:50;4.05;;;2.60;;
20036;SDS011;10179;42.640;23.312;2023-07-31T07:13:16;4.63;;;3.08;;
20036;SDS011;10179;42.640;23.312;2023-07-31T07:15:43;3.17;;;2.33;;
20036;SDS011;10179;42.640;23.312;2023-07-31T07:18:12;5.80;;;3.58;;
20036;SDS011;10179;42.640;23.312;2023-07-31T07:20:38;5.22;;;2.55;;
20036;SDS011;10179;42.640;23.312;2023-07-31T07:23:04;6.63;;;3.35;;
20036;SDS011;10179;42.640;23.312;2023-07-31T07:25:29;2.63;;;2.33;;
20036;SDS011;10179;42.640;23.312;2023-07-31T07:27:55;6.28;;;2.58;;
20036;SDS011;10179;42.640;23.312;2023-07-31T07:30:20;6.10;;;2.22;;
20036;SDS011;10179;42.640;23.312;2023-07-31T07:32:46;3.30;;;2.13;;
20036;SDS011;10179;42.640;23.312;2023-07-31T07:35:11;2.53;;;1.65;;
20036;SDS011;10179;42.640;23.312;2023-07-31T07:37:36;2.85;;;2.17;;
20036;SDS011;10179;42.640;23.312;2023-07-31T07:40:02;2.22;;;1.80;;
20036;SDS011;10179;42.640;23.312;2023-07-31T07:42:27;3.40;;;2.10;;
20036;SDS011;10179;42.640;23.312;2023-07-31T07:44:53;3.78;;;1.92;;
20036;SDS011;10179;42.640;23.312;2023-07-31T07:47:18;5.43;;;1.90;;
20036;SDS011;10179;42.640;23.312;2023-07-31T07:49:44;2.63;;;1.98;;
20036;SDS011;10179;42.640;23.312;2023-07-31T07:52:09;7.20;;;2.08;;
20036;SDS011;10179;42.640;23.312;2023-07-31T07:54:35;4.35;;;2.28;;
20036;SDS011;10179;42.640;23.312;2023-07-31T07:57:00;2.00;;;1.65;;
20036;SDS011;10179;42.640;23.312;2023-07-31T07:59:25;4.38;;;2.22;;
20036;SDS011;10179;42.640;23.312;2023-07-31T08:01:51;4.45;;;3.00;;
20036;SDS011;10179;42.640;23.312;2023-07-31T08:04:16;5.10;;;2.88;;
20036;SDS011;10179;42.640;23.312;2023-07-31T08:06:42;4.82;;;2.38;;
20036;SDS011;10179;42.640;23.312;2023-07-31T08:09:07;6.07;;;2.25;;
20036;SDS011;10179;42.640;23.312;2023-07-31T08:11:34;4.88;;;2.38;;
20036;SDS011;10179;42.640;23.312;2023-07-31T08:13:59;1.67;;;1.50;;
20036;SDS011;10179;42.640;23.312;2023-07-31T08:16:25;1.88;;;1.52;;
20036;SDS011;10179;42.640;23.312;2023-07-31T08:18:50;3.45;;;2.40;;
20036;SDS011;10179;42.640;23.312;2023-07-31T08:21:16;3.60;;;2.30;;
20036;SDS011;10179;42.640;23.312;2023-07-31T08:23:41;4.50;;;2.33;;
20036;SDS011;10179;42.640;23.312;2023-07-31T08:26:06;2.13;;;1.70;;
20036;SDS011;10179;42.640;23.312;2023-07-31T08:28:32;2.17;;;1.45;;
20036;SDS011;10179;42.640;23.312;2023-07-31T08:30:57;4.03;;;1.90;;
20036;SDS011;10179;42.640;23.312;2023-07-31T08:33:23;2.00;;;1.67;;
20036;SDS011;10179;42.640;23.312;2023-07-31T08:35:48;3.08;;;2.20;;
20036;SDS011;10179;42.640;23.312;2023-07-31T08:38:14;4.78;;;2.92;;
20036;SDS011;10179;42.640;23.312;2023-07-31T08:40:39;2.05;;;1.55;;
20036;SDS011;10179;42.640;23.312;2023-07-31T08:43:05;1.85;;;1.45;;
20036;SDS011;10179;42.640;23.312;2023-07-31T08:45:30;3.75;;;1.80;;
20036;SDS011;10179;42.640;23.312;2023-07-31T08:47:57;2.70;;;1.75;;
20036;SDS011;10179;42.640;23.312;2023-07-31T08:50:24;5.72;;;1.98;;
20036;SDS011;10179;42.640;23.312;2023-07-31T08:52:50;2.50;;;1.80;;
20036;SDS011;10179;42.640;23.312;2023-07-31T08:55:16;2.53;;;1.88;;
20036;SDS011;10179;42.640;23.312;2023-07-31T08:57:48;2.60;;;2.15;;
20036;SDS011;10179;42.640;23.312;2023-07-31T09:00:15;2.17;;;1.83;;
20036;SDS011;10179;42.640;23.312;2023-07-31T09:02:44;4.97;;;2.03;;
20036;SDS011;10179;42.640;23.312;2023-07-31T09:05:11;3.55;;;1.88;;
20036;SDS011;10179;42.640;23.312;2023-07-31T09:07:37;2.53;;;1.92;;
20036;SDS011;10179;42.640;23.312;2023-07-31T09:10:04;2.63;;;1.65;;
20036;SDS011;10179;42.640;23.312;2023-07-31T09:12:30;3.03;;;2.03;;
20036;SDS011;10179;42.640;23.312;2023-07-31T09:14:58;3.65;;;2.10;;
20036;SDS011;10179;42.640;23.312;2023-07-31T09:17:31;2.70;;;1.80;;
20036;SDS011;10179;42.640;23.312;2023-07-31T09:20:07;3.05;;;1.58;;
20036;SDS011;10179;42.640;23.312;2023-07-31T09:22:38;3.17;;;1.42;;
20036;SDS011;10179;42.640;23.312;2023-07-31T09:25:17;3.45;;;2.30;;
20036;SDS011;10179;42.640;23.312;2023-07-31T09:27:50;4.13;;;1.80;;
20036;SDS011;10179;42.640;23.312;2023-07-31T09:30:16;3.17;;;1.80;;
20036;SDS011;10179;42.640;23.312;2023-07-31T09:32:45;4.20;;;1.90;;
20036;SDS011;10179;42.640;23.312;2023-07-31T09:35:13;3.63;;;1.90;;
20036;SDS011;10179;42.640;23.312;2023-07-31T09:37:43;1.83;;;1.60;;
20036;SDS011;10179;42.640;23.312;2023-07-31T09:40:09;3.78;;;1.88;;
20036;SDS011;10179;42.640;23.312;2023-07-31T09:42:49;2.53;;;1.95;;
20036;SDS011;10179;42.640;23.312;2023-07-31T09:45:14;3.22;;;2.42;;
20036;SDS011;10179;42.640;23.312;2023-07-31T09:47:41;3.22;;;1.73;;
20036;SDS011;10179;42.640;23.312;2023-07-31T09:50:13;3.60;;;2.15;;
20036;SDS011;10179;42.640;23.312;2023-07-31T09:52:39;2.20;;;1.80;;
20036;SDS011;10179;42.640;23.312;2023-07-31T09:55:05;2.58;;;1.80;;
20036;SDS011;10179;42.640;23.312;2023-07-31T09:57:31;1.98;;;1.70;;
20036;SDS011;10179;42.640;23.312;2023-07-31T09:59:58;2.30;;;1.70;;
20036;SDS011;10179;42.640;23.312;2023-07-31T10:02:23;2.42;;;1.70;;
20036;SDS011;10179;42.640;23.312;2023-07-31T10:04:51;4.03;;;1.92;;
20036;SDS011;10179;42.640;23.312;2023-07-31T10:07:18;3.63;;;2.10;;
20036;SDS011;10179;42.640;23.312;2023-07-31T10:09:45;3.17;;;1.77;;
20036;SDS011;10179;42.640;23.312;2023-07-31T10:12:12;2.58;;;1.80;;
20036;SDS011;10179;42.640;23.312;2023-07-31T10:14:41;2.05;;;1.52;;
20036;SDS011;10179;42.640;23.312;2023-07-31T10:17:07;3.03;;;1.88;;
20036;SDS011;10179;42.640;23.312;2023-07-31T10:19:33;5.88;;;2.55;;
20036;SDS011;10179;42.640;23.312;2023-07-31T10:22:00;4.35;;;1.88;;
20036;SDS011;10179;42.640;23.312;2023-07-31T10:24:27;2.70;;;2.22;;
20036;SDS011;10179;42.640;23.312;2023-07-31T10:26:54;4.10;;;3.10;;
20036;SDS011;10179;42.640;23.312;2023-07-31T10:29:24;1.42;;;1.25;;
20036;SDS011;10179;42.640;23.312;2023-07-31T10:31:51;3.97;;;1.70;;
20036;SDS011;10179;42.640;23.312;2023-07-31T10:34:17;2.53;;;1.92;;
20036;SDS011;10179;42.640;23.312;2023-07-31T10:36:43;2.05;;;1.50;;
20036;SDS011;10179;42.640;23.312;2023-07-31T10:42:20;2.17;;;1.23;;
20036;SDS011;10179;42.640;23.312;2023-07-31T10:44:52;3.88;;;1.73;;
20036;SDS011;10179;42.640;23.312;2023-07-31T10:47:21;2.72;;;1.77;;
20036;SDS011;10179;42.640;23.312;2023-07-31T10:49:46;3.28;;;1.88;;
20036;SDS011;10179;42.640;23.312;2023-07-31T10:52:12;3.00;;;1.60;;
20036;SDS011;10179;42.640;23.312;2023-07-31T10:54:38;2.30;;;1.70;;
20036;SDS011;10179;42.640;23.312;2023-07-31T10:57:18;1.90;;;1.33;;
20036;SDS011;10179;42.640;23.312;2023-07-31T10:59:45;2.92;;;1.30;;
20036;SDS011;10179;42.640;23.312;2023-07-31T11:02:19;2.95;;;1.60;;
20036;SDS011;10179;42.640;23.312;2023-07-31T11:05:05;4.88;;;1.60;;
20036;SDS011;10179;42.640;23.312;2023-07-31T11:07:48;2.38;;;1.45;;
20036;SDS011;10179;42.640;23.312;2023-07-31T11:12:44;5.40;;;1.50;;
20036;SDS011;10179;42.640;23.312;2023-07-31T11:15:10;3.95;;;1.25;;
20036;SDS011;10179;42.640;23.312;2023-07-31T11:17:39;1.13;;;0.90;;
20036;SDS011;10179;42.640;23.312;2023-07-31T11:20:05;1.50;;;1.10;;
20036;SDS011;10179;42.640;23.312;2023-07-31T11:22:32;6.68;;;1.30;;
20036;SDS011;10179;42.640;23.312;2023-07-31T11:25:00;1.65;;;0.93;;
20036;SDS011;10179;42.640;23.312;2023-07-31T11:27:29;1.70;;;1.02;;
20036;SDS011;10179;42.640;23.312;2023-07-31T11:30:01;1.60;;;0.88;;
20036;SDS011;10179;42.640;23.312;2023-07-31T11:32:28;2.78;;;0.80;;
20036;SDS011;10179;42.640;23.312;2023-07-31T11:34:53;1.35;;;1.25;;
20036;SDS011;10179;42.640;23.312;2023-07-31T11:37:20;1.67;;;1.20;;
20036;SDS011;10179;42.640;23.312;2023-07-31T11:40:00;2.83;;;1.50;;
20036;SDS011;10179;42.640;23.312;2023-07-31T11:42:26;2.92;;;1.67;;
20036;SDS011;10179;42.640;23.312;2023-07-31T11:44:51;11.02;;;2.92;;
20036;SDS011;10179;42.640;23.312;2023-07-31T11:47:17;5.35;;;2.33;;
20036;SDS011;10179;42.640;23.312;2023-07-31T11:49:43;4.50;;;2.50;;
20036;SDS011;10179;42.640;23.312;2023-07-31T11:52:09;4.93;;;2.97;;
20036;SDS011;10179;42.640;23.312;2023-07-31T11:54:36;4.30;;;1.98;;
20036;SDS011;10179;42.640;23.312;2023-07-31T11:57:01;4.95;;;2.35;;
20036;SDS011;10179;42.640;23.312;2023-07-31T11:59:28;2.80;;;1.85;;
20036;SDS011;10179;42.640;23.312;2023-07-31T12:01:53;3.17;;;2.42;;
20036;SDS011;10179;42.640;23.312;2023-07-31T12:04:19;3.47;;;1.70;;
20036;SDS011;10179;42.640;23.312;2023-07-31T12:06:46;2.10;;;1.60;;
20036;SDS011;10179;42.640;23.312;2023-07-31T12:09:14;8.85;;;2.85;;
20036;SDS011;10179;42.640;23.312;2023-07-31T12:11:43;2.85;;;2.00;;
20036;SDS011;10179;42.640;23.312;2023-07-31T12:17:06;2.50;;;1.92;;
20036;SDS011;10179;42.640;23.312;2023-07-31T12:19:32;3.20;;;2.10;;
20036;SDS011;10179;42.640;23.312;2023-07-31T12:22:01;2.55;;;2.03;;
20036;SDS011;10179;42.640;23.312;2023-07-31T12:24:27;5.28;;;2.10;;
20036;SDS011;10179;42.640;23.312;2023-07-31T12:26:52;4.07;;;2.85;;
20036;SDS011;10179;42.640;23.312;2023-07-31T12:29:19;4.90;;;3.40;;
20036;SDS011;10179;42.640;23.312;2023-07-31T12:31:45;3.78;;;2.65;;
20036;SDS011;10179;42.640;23.312;2023-07-31T12:34:16;3.78;;;2.75;;
20036;SDS011;10179;42.640;23.312;2023-07-31T12:36:43;5.85;;;3.65;;
20036;SDS011;10179;42.640;23.312;2023-07-31T12:39:09;7.25;;;4.03;;
20036;SDS011;10179;42.640;23.312;2023-07-31T12:41:35;6.85;;;3.45;;
20036;SDS011;10179;42.640;23.312;2023-07-31T12:44:00;6.88;;;3.83;;
20036;SDS011;10179;42.640;23.312;2023-07-31T12:46:26;4.88;;;3.45;;
20036;SDS011;10179;42.640;23.312;2023-07-31T12:48:51;6.15;;;3.83;;
20036;SDS011;10179;42.640;23.312;2023-07-31T12:51:17;5.72;;;3.00;;
20036;SDS011;10179;42.640;23.312;2023-07-31T12:53:42;7.88;;;3.10;;
20036;SDS011;10179;42.640;23.312;2023-07-31T12:56:08;6.28;;;3.40;;
20036;SDS011;10179;42.640;23.312;2023-07-31T12:58:33;5.32;;;3.50;;
20036;SDS011;10179;42.640;23.312;2023-07-31T13:00:58;4.57;;;3.47;;
20036;SDS011;10179;42.640;23.312;2023-07-31T13:03:24;4.70;;;3.55;;
20036;SDS011;10179;42.640;23.312;2023-07-31T13:05:49;4.22;;;3.53;;
20036;SDS011;10179;42.640;23.312;2023-07-31T13:08:15;4.43;;;3.25;;
20036;SDS011;10179;42.640;23.312;2023-07-31T13:10:42;4.57;;;3.45;;
20036;SDS011;10179;42.640;23.312;2023-07-31T13:13:08;4.60;;;3.40;;
20036;SDS011;10179;42.640;23.312;2023-07-31T13:15:34;5.95;;;3.97;;
20036;SDS011;10179;42.640;23.312;2023-07-31T13:17:59;7.20;;;4.43;;
20036;SDS011;10179;42.640;23.312;2023-07-31T13:20:25;5.22;;;4.18;;
20036;SDS011;10179;42.640;23.312;2023-07-31T13:22:50;4.97;;;3.83;;
20036;SDS011;10179;42.640;23.312;2023-07-31T13:25:16;6.15;;;4.70;;
20036;SDS011;10179;42.640;23.312;2023-07-31T13:27:41;8.60;;;5.22;;
20036;SDS011;10179;42.640;23.312;2023-07-31T13:30:07;8.68;;;4.55;;
20036;SDS011;10179;42.640;23.312;2023-07-31T13:32:32;4.72;;;3.63;;
20036;SDS011;10179;42.640;23.312;2023-07-31T13:34:58;6.07;;;3.35;;
20036;SDS011;10179;42.640;23.312;2023-07-31T13:37:24;5.00;;;2.70;;
20036;SDS011;10179;42.640;23.312;2023-07-31T13:39:49;5.97;;;4.22;;
20036;SDS011;10179;42.640;23.312;2023-07-31T13:42:15;5.78;;;3.30;;
20036;SDS011;10179;42.640;23.312;2023-07-31T13:44:40;5.68;;;4.10;;
20036;SDS011;10179;42.640;23.312;2023-07-31T13:47:07;5.63;;;3.40;;
20036;SDS011;10179;42.640;23.312;2023-07-31T13:49:33;8.30;;;3.88;;
20036;SDS011;10179;42.640;23.312;2023-07-31T13:51:59;11.35;;;3.63;;
20036;SDS011;10179;42.640;23.312;2023-07-31T13:54:24;3.55;;;2.95;;
20036;SDS011;10179;42.640;23.312;2023-07-31T13:56:51;4.25;;;3.28;;
20036;SDS011;10179;42.640;23.312;2023-07-31T13:59:17;4.05;;;3.28;;
20036;SDS011;10179;42.640;23.312;2023-07-31T14:01:43;5.88;;;3.75;;
20036;SDS011;10179;42.640;23.312;2023-07-31T14:04:09;6.18;;;3.22;;
20036;SDS011;10179;42.640;23.312;2023-07-31T14:06:34;3.83;;;3.13;;
20036;SDS011;10179;42.640;23.312;2023-07-31T14:09:00;4.18;;;3.45;;
20036;SDS011;10179;42.640;23.312;2023-07-31T14:11:25;4.88;;;3.05;;
20036;SDS011;10179;42.640;23.312;2023-07-31T14:13:51;5.57;;;4.43;;
20036;SDS011;10179;42.640;23.312;2023-07-31T14:16:17;4.85;;;3.50;;
20036;SDS011;10179;42.640;23.312;2023-07-31T14:18:42;5.47;;;3.47;;
20036;SDS011;10179;42.640;23.312;2023-07-31T14:21:08;4.32;;;3.25;;
20036;SDS011;10179;42.640;23.312;2023-07-31T14:23:33;4.72;;;3.17;;
20036;SDS011;10179;42.640;23.312;2023-07-31T14:25:59;4.22;;;3.25;;
20036;SDS011;10179;42.640;23.312;2023-07-31T14:28:24;7.75;;;3.70;;
20036;SDS011;10179;42.640;23.312;2023-07-31T14:30:50;3.17;;;2.80;;
20036;SDS011;10179;42.640;23.312;2023-07-31T14:33:15;3.35;;;2.70;;
20036;SDS011;10179;42.640;23.312;2023-07-31T14:35:40;5.82;;;3.47;;
20036;SDS011;10179;42.640;23.312;2023-07-31T14:38:06;4.20;;;3.10;;